Quonset State Airport North Kingstown US
ICAO: KOQU
IATA: OQU
Category: Medium
Scheduled Services: No

Elevation: 18 ft
TransAlt. 18000 ft.

Airport Communications:
PROVIDENCE APP/DEP:135.4
CTAF:126.35
GND:134.5
ANG OPS:38.33
ARNG OPS:38.95
BRIDGEPORT RDO:122.3
TWR:126.35
UNICOM:122.95

KOQU Zoom In..

Runways:

(A) RW 05 length 4000 ft width 75 ft
---- / hdg 49

(B) RW 16 length 7504 ft width 150 ft
ILS 109.50 / hdg 160

(C) RW 23 length 4000 ft width 75 ft
---- / hdg 229

(D) RW 34 length 7504 ft width 150 ft
---- / hdg 340

Location; KOQU
Day. 20 / Time. 19.50 Zulu
* Altimeter: 30.15
* Temperature: 25° c. 77°f.
* Wind from: 200° Speed 15 kn.
Dewpoint: 16° c.
Visibility: 15 Statute Miles.
Clouds: Clear (manual report).

KOQU 201950Z 20015KT 15SM SKC 25/16 A3015


Wind From 200°
Speed 15 kn.

 
 
jpsmedia.com for Web Design worldairports.se 2018   terms of use